createdAt,value
2023-01-25T00:02:04.470Z,8.30
2023-01-25T00:04:50.299Z,8.30
2023-01-25T00:07:35.865Z,8.40
2023-01-25T00:10:21.340Z,8.30
2023-01-25T00:13:07.496Z,8.40
2023-01-25T00:15:53.193Z,8.40
2023-01-25T00:18:39.073Z,8.50
2023-01-25T00:21:26.451Z,8.40
2023-01-25T00:24:12.243Z,8.40
2023-01-25T00:26:58.299Z,8.40
2023-01-25T00:29:43.972Z,8.50
2023-01-25T00:32:47.162Z,8.50
2023-01-25T00:35:34.585Z,8.50
2023-01-25T00:38:35.928Z,8.50
2023-01-25T00:41:21.712Z,8.50
2023-01-25T00:44:07.941Z,8.50
2023-01-25T00:46:53.859Z,8.60
2023-01-25T00:49:41.105Z,8.60
2023-01-25T00:52:28.773Z,8.60
2023-01-25T00:55:16.713Z,8.60
2023-01-25T00:58:02.740Z,8.70
2023-01-25T01:00:48.744Z,8.60
2023-01-25T01:03:34.811Z,8.50
2023-01-25T01:06:21.218Z,8.50
2023-01-25T01:09:11.459Z,8.50
2023-01-25T01:11:57.753Z,8.40
2023-01-25T01:14:43.902Z,8.30
2023-01-25T01:17:30.380Z,8.40
2023-01-25T01:20:16.955Z,8.30
2023-01-25T01:23:03.694Z,8.20
2023-01-25T01:25:49.674Z,8.30
2023-01-25T01:28:39.673Z,8.30
2023-01-25T01:31:26.592Z,8.40
2023-01-25T01:34:21.033Z,8.50
2023-01-25T01:37:07.258Z,8.60
2023-01-25T01:39:53.477Z,8.60
2023-01-25T01:43:00.977Z,8.50
2023-01-25T01:45:48.537Z,8.30
2023-01-25T01:48:48.015Z,8.00
2023-01-25T01:51:44.164Z,7.50
2023-01-25T01:54:48.920Z,8.00
2023-01-25T01:58:04.117Z,8.10
2023-01-25T02:00:50.482Z,8.20
2023-01-25T02:03:36.495Z,8.40
2023-01-25T02:06:36.658Z,8.60
2023-01-25T02:09:26.178Z,8.60
2023-01-25T02:12:14.448Z,8.50
2023-01-25T02:15:00.846Z,8.40
2023-01-25T02:17:48.663Z,8.20
2023-01-25T02:20:40.732Z,8.20
2023-01-25T02:23:53.452Z,8.60
2023-01-25T02:26:40.486Z,8.30
2023-01-25T02:29:29.865Z,8.30
2023-01-25T02:32:16.515Z,8.40
2023-01-25T02:35:02.271Z,8.40
2023-01-25T02:37:48.819Z,8.50
2023-01-25T02:40:44.729Z,8.40
2023-01-25T02:43:34.138Z,8.40
2023-01-25T02:46:32.298Z,8.30
2023-01-25T02:49:19.180Z,8.20
2023-01-25T02:52:06.780Z,8.20
2023-01-25T02:54:53.198Z,8.30
2023-01-25T02:57:39.371Z,8.20
2023-01-25T03:00:25.149Z,8.20
2023-01-25T03:03:10.870Z,8.10
2023-01-25T03:05:56.411Z,8.10
2023-01-25T03:08:42.155Z,8.20
2023-01-25T03:11:27.813Z,8.30
2023-01-25T03:14:13.915Z,8.40
2023-01-25T03:16:59.638Z,8.30
2023-01-25T03:19:45.580Z,8.40
2023-01-25T03:22:31.427Z,8.40
2023-01-25T03:25:17.306Z,8.40
2023-01-25T03:28:13.919Z,8.40
2023-01-25T03:31:00.989Z,8.40
2023-01-25T03:33:47.503Z,8.30
2023-01-25T03:36:33.864Z,8.20
2023-01-25T03:39:19.820Z,8.20
2023-01-25T03:42:06.197Z,8.10
2023-01-25T03:44:52.690Z,8.00
2023-01-25T03:47:38.796Z,7.90
2023-01-25T03:50:26.336Z,7.90
2023-01-25T03:53:30.537Z,7.80
2023-01-25T03:56:28.613Z,7.90
2023-01-25T03:59:37.394Z,8.00
2023-01-25T04:02:23.654Z,8.10
2023-01-25T04:05:10.505Z,8.20
2023-01-25T04:07:57.044Z,8.30
2023-01-25T04:10:56.406Z,8.30
2023-01-25T04:13:42.353Z,8.30
2023-01-25T04:16:31.815Z,8.50
2023-01-25T04:19:35.657Z,8.60
2023-01-25T04:22:23.001Z,8.60
2023-01-25T04:25:12.214Z,8.70
2023-01-25T04:28:03.972Z,8.80
2023-01-25T04:30:50.434Z,8.80
2023-01-25T04:33:38.410Z,8.80
2023-01-25T04:36:26.717Z,8.80
2023-01-25T04:39:12.452Z,8.80
2023-01-25T04:41:58.413Z,8.70
2023-01-25T04:44:44.560Z,8.70
2023-01-25T04:47:30.231Z,8.70
2023-01-25T04:50:16.393Z,8.60
2023-01-25T04:53:02.836Z,8.40
2023-01-25T04:55:50.113Z,8.40
2023-01-25T04:58:36.307Z,8.40
2023-01-25T05:01:22.259Z,8.50
2023-01-25T05:04:09.815Z,8.50
2023-01-25T05:07:02.369Z,8.60
2023-01-25T05:09:48.150Z,8.60
2023-01-25T05:12:33.932Z,8.70
2023-01-25T05:15:24.108Z,8.70
2023-01-25T05:18:09.758Z,8.70
2023-01-25T05:20:58.903Z,8.50
2023-01-25T05:23:45.703Z,8.50
2023-01-25T05:26:50.028Z,8.50
2023-01-25T05:29:44.392Z,8.20
2023-01-25T05:32:30.501Z,8.40
2023-01-25T05:35:17.753Z,8.20
2023-01-25T05:38:04.513Z,8.20
2023-01-25T05:40:50.105Z,8.10
2023-01-25T05:43:36.056Z,7.80
2023-01-25T05:46:24.873Z,7.60
2023-01-25T05:49:11.624Z,7.60
2023-01-25T05:51:59.073Z,7.80
2023-01-25T05:54:45.835Z,7.80
2023-01-25T05:57:34.056Z,7.90
2023-01-25T06:00:21.447Z,7.90
2023-01-25T06:03:07.572Z,7.70
2023-01-25T06:05:57.122Z,7.80
2023-01-25T06:08:43.785Z,7.40
2023-01-25T06:11:29.666Z,7.30
2023-01-25T06:14:16.813Z,7.50
2023-01-25T06:17:02.994Z,8.10
2023-01-25T06:20:15.982Z,7.60
2023-01-25T06:23:20.448Z,7.60
2023-01-25T06:26:11.627Z,7.50
2023-01-25T06:28:57.942Z,7.30
2023-01-25T06:31:43.914Z,7.50
2023-01-25T06:34:29.860Z,7.60
2023-01-25T06:37:15.914Z,7.60
2023-01-25T06:40:01.519Z,7.60
2023-01-25T06:42:47.122Z,7.60
2023-01-25T06:45:33.295Z,7.80
2023-01-25T06:48:19.206Z,7.50
2023-01-25T06:51:08.634Z,7.60
2023-01-25T06:53:54.823Z,7.60
2023-01-25T06:57:46.274Z,7.60
2023-01-25T07:00:32.182Z,7.70
2023-01-25T07:03:20.388Z,7.60
2023-01-25T07:06:08.084Z,7.70
2023-01-25T07:08:54.308Z,7.60
2023-01-25T07:11:40.191Z,7.70
2023-01-25T07:14:25.879Z,7.80
2023-01-25T07:17:11.826Z,8.00
2023-01-25T07:19:59.101Z,8.00
2023-01-25T07:22:44.782Z,8.00
2023-01-25T07:25:30.923Z,8.00
2023-01-25T07:28:21.126Z,8.00
2023-01-25T07:31:07.588Z,7.90
2023-01-25T07:33:56.787Z,8.00
2023-01-25T07:36:47.064Z,8.10
2023-01-25T07:39:33.111Z,8.20
2023-01-25T07:42:19.579Z,8.20
2023-01-25T07:45:30.513Z,8.30
2023-01-25T07:48:17.871Z,8.30
2023-01-25T07:51:13.488Z,8.30
2023-01-25T07:54:02.286Z,8.50
2023-01-25T07:56:49.948Z,8.60
2023-01-25T07:59:35.895Z,8.60
2023-01-25T08:02:22.732Z,8.70
2023-01-25T08:05:10.263Z,8.70
2023-01-25T08:07:57.131Z,8.60
2023-01-25T08:10:43.020Z,8.60
2023-01-25T08:13:31.237Z,8.80
2023-01-25T08:16:19.451Z,8.80
2023-01-25T08:19:05.843Z,8.90
2023-01-25T08:21:53.661Z,9.00
2023-01-25T08:24:42.299Z,8.90
2023-01-25T08:27:29.320Z,9.00
2023-01-25T08:30:17.479Z,9.10
2023-01-25T08:33:03.954Z,9.10
2023-01-25T08:35:57.984Z,9.30
2023-01-25T08:38:44.438Z,9.40
2023-01-25T08:41:33.013Z,9.40
2023-01-25T08:44:24.737Z,9.10
2023-01-25T08:47:12.073Z,9.20
2023-01-25T08:49:58.623Z,9.30
2023-01-25T08:52:45.158Z,8.90
2023-01-25T08:55:31.248Z,8.90
2023-01-25T08:58:20.089Z,9.20
2023-01-25T09:01:08.330Z,9.30
2023-01-25T09:03:55.250Z,9.30
2023-01-25T09:06:41.934Z,9.40
2023-01-25T09:09:30.036Z,9.10
2023-01-25T09:12:16.308Z,9.30
2023-01-25T09:15:05.135Z,9.60
2023-01-25T09:17:53.382Z,9.70
2023-01-25T09:20:41.064Z,10.10
2023-01-25T09:23:29.076Z,10.60
2023-01-25T09:26:16.318Z,11.30
2023-01-25T09:29:03.987Z,11.40
2023-01-25T09:31:50.819Z,13.10
2023-01-25T09:34:51.441Z,14.80
2023-01-25T09:37:38.238Z,15.40
2023-01-25T09:40:32.522Z,15.20
2023-01-25T09:43:48.304Z,14.70
2023-01-25T09:46:50.987Z,15.30
2023-01-25T09:49:59.391Z,16.30
2023-01-25T09:53:16.146Z,16.40
2023-01-25T09:56:21.107Z,16.30
2023-01-25T09:59:17.458Z,16.70
2023-01-25T10:02:34.839Z,13.80
2023-01-25T10:05:29.372Z,10.60
2023-01-25T10:08:36.420Z,10.60
2023-01-25T10:11:29.165Z,12.00
2023-01-25T10:14:18.981Z,11.10
2023-01-25T10:17:31.836Z,10.50
2023-01-25T10:20:40.825Z,11.60
2023-01-25T10:23:30.035Z,12.40
2023-01-25T10:26:24.005Z,12.00
2023-01-25T10:29:15.243Z,12.50
2023-01-25T10:32:21.003Z,12.80
2023-01-25T10:35:42.146Z,12.80
2023-01-25T10:38:43.731Z,13.20
2023-01-25T10:41:41.265Z,12.40
2023-01-25T10:44:28.916Z,8.80
2023-01-25T10:47:29.134Z,9.30
2023-01-25T10:50:47.302Z,9.80
2023-01-25T10:53:44.545Z,11.00
2023-01-25T10:56:34.052Z,11.40
2023-01-25T10:59:26.869Z,11.70
2023-01-25T11:02:46.689Z,11.40
2023-01-25T11:05:43.284Z,10.60
2023-01-25T11:08:42.119Z,10.20
2023-01-25T11:11:58.176Z,9.90
2023-01-25T11:18:13.715Z,10.60
2023-01-25T11:21:23.426Z,10.70
2023-01-25T11:24:12.267Z,11.60
2023-01-25T11:27:19.130Z,12.20
2023-01-25T11:30:19.426Z,12.10
2023-01-25T11:33:14.771Z,11.90
2023-01-25T11:36:01.175Z,10.90
2023-01-25T11:39:18.542Z,11.70
2023-01-25T11:42:17.762Z,12.10
2023-01-25T11:45:32.487Z,11.60
2023-01-25T11:48:43.954Z,10.90
2023-01-25T11:51:49.980Z,10.80
2023-01-25T11:54:50.942Z,10.80
2023-01-25T11:57:54.723Z,10.70
2023-01-25T12:00:52.783Z,11.50
2023-01-25T12:03:51.690Z,12.40
2023-01-25T12:07:04.989Z,11.60
2023-01-25T12:10:04.498Z,12.00
2023-01-25T12:13:17.000Z,11.30
2023-01-25T12:16:31.919Z,11.00
2023-01-25T12:19:30.488Z,10.90
2023-01-25T12:22:31.928Z,10.20
2023-01-25T12:25:37.335Z,10.20
2023-01-25T12:28:30.557Z,10.80
2023-01-25T12:31:48.059Z,10.90
2023-01-25T12:34:40.126Z,10.40
2023-01-25T12:37:32.993Z,10.20
2023-01-25T12:40:26.212Z,10.10
2023-01-25T12:43:38.471Z,10.00
2023-01-25T12:46:34.801Z,10.30
2023-01-25T12:49:41.989Z,10.40
2023-01-25T12:52:31.182Z,10.30
2023-01-25T12:55:18.887Z,10.30
2023-01-25T12:58:37.346Z,10.60
2023-01-25T13:01:27.510Z,10.70
2023-01-25T13:04:37.965Z,10.70
2023-01-25T13:07:55.005Z,10.60
2023-01-25T13:10:47.184Z,10.60
2023-01-25T13:13:33.547Z,10.20
2023-01-25T13:16:36.780Z,10.40
2023-01-25T13:19:31.565Z,10.40
2023-01-25T13:22:43.558Z,10.20
2023-01-25T13:25:29.630Z,10.00
2023-01-25T13:28:48.797Z,10.10
2023-01-25T13:31:58.987Z,10.00
2023-01-25T13:34:58.208Z,10.10
2023-01-25T13:37:44.375Z,10.20
2023-01-25T13:40:35.517Z,10.10
2023-01-25T13:43:23.580Z,10.10
2023-01-25T13:46:14.299Z,10.10
2023-01-25T13:49:08.414Z,10.20
2023-01-25T13:51:54.796Z,10.20
2023-01-25T13:54:49.539Z,10.30
2023-01-25T13:57:36.686Z,10.40
2023-01-25T14:00:25.910Z,10.40
2023-01-25T14:03:17.886Z,10.40
2023-01-25T14:06:04.499Z,10.50
2023-01-25T14:08:55.278Z,10.40
2023-01-25T14:12:02.747Z,10.20
2023-01-25T14:18:24.690Z,10.20
2023-01-25T14:22:00.075Z,10.20
2023-01-25T14:25:15.954Z,10.20
2023-01-25T14:28:08.168Z,10.10
2023-01-25T14:31:01.952Z,10.10
2023-01-25T14:33:54.822Z,9.80
2023-01-25T14:36:41.099Z,9.90
2023-01-25T14:39:30.870Z,9.90
2023-01-25T14:42:18.131Z,10.00
2023-01-25T14:45:06.091Z,9.70
2023-01-25T14:47:59.404Z,9.70
2023-01-25T14:50:46.895Z,9.80
2023-01-25T14:53:35.973Z,9.80
2023-01-25T14:56:37.379Z,9.70
2023-01-25T14:59:41.882Z,9.70
2023-01-25T15:02:39.293Z,9.60
2023-01-25T15:05:34.312Z,9.60
2023-01-25T15:08:50.106Z,9.70
2023-01-25T15:11:46.534Z,9.60
2023-01-25T15:14:33.347Z,9.60
2023-01-25T15:17:44.167Z,9.50
2023-01-25T15:20:31.620Z,9.50
2023-01-25T15:23:29.916Z,9.50
2023-01-25T15:26:27.386Z,9.60
2023-01-25T15:29:22.087Z,9.70
2023-01-25T15:32:17.823Z,9.90
2023-01-25T15:35:05.028Z,10.20
2023-01-25T15:37:51.336Z,10.30
2023-01-25T15:40:38.656Z,9.80
2023-01-25T15:43:24.690Z,9.70
2023-01-25T15:46:18.535Z,9.60
2023-01-25T15:49:13.962Z,9.80
2023-01-25T15:52:00.230Z,9.60
2023-01-25T15:54:55.905Z,9.50
2023-01-25T15:57:47.232Z,9.40
2023-01-25T16:00:34.087Z,9.50
2023-01-25T16:03:23.032Z,10.30
2023-01-25T16:06:31.734Z,10.50
2023-01-25T16:09:31.375Z,10.20
2023-01-25T16:12:18.751Z,9.80
2023-01-25T16:15:05.797Z,9.30
2023-01-25T16:17:51.871Z,9.20
2023-01-25T16:20:38.139Z,9.70
2023-01-25T16:23:24.233Z,9.70
2023-01-25T16:26:26.821Z,9.40
2023-01-25T16:29:13.622Z,9.50
2023-01-25T16:32:01.654Z,9.20
2023-01-25T16:34:47.915Z,8.90
2023-01-25T16:37:34.421Z,8.70
2023-01-25T16:40:31.890Z,8.80
2023-01-25T16:43:19.258Z,8.90
2023-01-25T16:46:05.872Z,9.10
2023-01-25T16:48:55.405Z,9.00
2023-01-25T16:51:43.756Z,9.20
2023-01-25T16:54:30.409Z,9.40
2023-01-25T16:57:27.853Z,9.40
2023-01-25T17:00:34.825Z,9.30
2023-01-25T17:03:21.430Z,9.20
2023-01-25T17:06:08.401Z,9.00
2023-01-25T17:09:09.413Z,8.70
2023-01-25T17:11:59.232Z,8.60
2023-01-25T17:14:45.682Z,8.60
2023-01-25T17:17:31.837Z,8.70
2023-01-25T17:20:18.270Z,8.70
2023-01-25T17:27:11.839Z,8.70
2023-01-25T17:29:58.161Z,8.60
2023-01-25T17:32:45.813Z,8.50
2023-01-25T17:35:39.025Z,8.40
2023-01-25T17:38:26.375Z,8.70
2023-01-25T17:41:16.230Z,8.80
2023-01-25T17:44:02.575Z,8.80
2023-01-25T17:46:51.936Z,8.80
2023-01-25T17:49:38.620Z,9.00
2023-01-25T17:52:25.062Z,9.10
2023-01-25T17:55:11.014Z,9.10
2023-01-25T17:58:00.401Z,9.00
2023-01-25T18:00:46.625Z,9.00
2023-01-25T18:03:34.847Z,9.10
2023-01-25T18:06:25.095Z,9.20
2023-01-25T18:09:11.298Z,9.30
2023-01-25T18:11:59.053Z,9.40
2023-01-25T18:14:46.362Z,9.50
2023-01-25T18:17:35.805Z,9.40
2023-01-25T18:20:21.849Z,9.20
2023-01-25T18:23:07.602Z,9.10
2023-01-25T18:25:53.922Z,9.00
2023-01-25T18:28:40.855Z,8.90
2023-01-25T18:31:27.793Z,8.80
2023-01-25T18:34:14.511Z,8.80
2023-01-25T18:37:00.875Z,8.70
2023-01-25T18:39:48.695Z,8.60
2023-01-25T18:42:34.505Z,8.50
2023-01-25T18:48:58.258Z,8.60
2023-01-25T18:52:04.858Z,8.40
2023-01-25T18:54:52.278Z,8.40
2023-01-25T18:57:38.865Z,8.50
2023-01-25T19:00:25.406Z,8.50
2023-01-25T19:03:11.452Z,8.50
2023-01-25T19:05:58.680Z,8.40
2023-01-25T19:08:52.467Z,8.20
2023-01-25T19:11:38.023Z,7.90
2023-01-25T19:14:27.465Z,7.70
2023-01-25T19:17:13.550Z,7.60
2023-01-25T19:20:01.725Z,7.70
2023-01-25T19:22:48.324Z,7.60
2023-01-25T19:25:34.732Z,7.70
2023-01-25T19:28:23.153Z,7.80
2023-01-25T19:31:24.379Z,7.80
2023-01-25T19:34:10.681Z,7.80
2023-01-25T19:36:57.614Z,8.00
2023-01-25T19:39:44.347Z,7.90
2023-01-25T19:42:31.081Z,7.70
2023-01-25T19:45:17.679Z,7.70
2023-01-25T19:48:06.968Z,7.60
2023-01-25T19:50:54.097Z,7.50
2023-01-25T19:53:41.815Z,7.50
2023-01-25T19:56:30.899Z,7.60
2023-01-25T19:59:19.204Z,7.70
2023-01-25T20:02:07.149Z,7.70
2023-01-25T20:04:55.169Z,7.70
2023-01-25T20:07:42.469Z,7.70
2023-01-25T20:10:29.658Z,7.60
2023-01-25T20:13:15.844Z,7.10
2023-01-25T20:16:02.188Z,7.30
2023-01-25T20:18:49.948Z,6.60
2023-01-25T20:21:38.446Z,6.60
2023-01-25T20:24:25.033Z,7.10
2023-01-25T20:27:12.021Z,7.00
2023-01-25T20:29:59.187Z,7.10
2023-01-25T20:32:46.014Z,7.10
2023-01-25T20:35:32.015Z,7.20
2023-01-25T20:38:18.063Z,7.10
2023-01-25T20:41:07.661Z,7.00
2023-01-25T20:44:01.803Z,7.10
2023-01-25T20:46:48.156Z,7.10
2023-01-25T20:49:52.786Z,7.10
2023-01-25T20:52:38.563Z,7.20
2023-01-25T20:55:24.705Z,7.00
2023-01-25T20:58:19.435Z,6.70
2023-01-25T21:01:15.829Z,7.00
2023-01-25T21:04:15.276Z,7.30
2023-01-25T21:07:02.492Z,7.40
2023-01-25T21:09:49.576Z,7.60
2023-01-25T21:12:35.525Z,7.40
2023-01-25T21:15:24.126Z,7.40
2023-01-25T21:18:11.321Z,7.40
2023-01-25T21:21:02.306Z,7.40
2023-01-25T21:24:00.337Z,7.40
2023-01-25T21:26:46.514Z,7.30
2023-01-25T21:29:32.651Z,7.40
2023-01-25T21:32:19.417Z,7.40
2023-01-25T21:35:06.874Z,7.20
2023-01-25T21:37:59.644Z,7.20
2023-01-25T21:40:45.989Z,7.50
2023-01-25T21:43:53.300Z,7.10
2023-01-25T21:46:39.954Z,7.10
2023-01-25T21:49:44.645Z,7.10
2023-01-25T21:52:31.278Z,7.20
2023-01-25T21:55:17.119Z,7.10
2023-01-25T21:58:04.141Z,7.00
2023-01-25T22:00:50.277Z,7.10
2023-01-25T22:03:36.987Z,6.90
2023-01-25T22:06:23.353Z,6.90
2023-01-25T22:09:10.309Z,6.70
2023-01-25T22:11:56.701Z,6.70
2023-01-25T22:14:44.019Z,6.80
2023-01-25T22:17:34.756Z,6.80
2023-01-25T22:20:20.830Z,6.80
2023-01-25T22:23:06.955Z,6.70
2023-01-25T22:26:11.262Z,6.70
2023-01-25T22:29:10.613Z,6.70
2023-01-25T22:31:58.577Z,6.60
2023-01-25T22:34:45.177Z,6.60
2023-01-25T22:37:34.338Z,6.50
2023-01-25T22:40:21.260Z,6.20
2023-01-25T22:43:07.476Z,5.80
2023-01-25T22:45:54.018Z,6.10
2023-01-25T22:48:40.245Z,6.20
2023-01-25T22:51:30.935Z,6.20
2023-01-25T22:54:17.771Z,6.20
2023-01-25T22:57:03.990Z,6.00
2023-01-25T22:59:52.825Z,6.10
2023-01-25T23:02:39.118Z,6.30
2023-01-25T23:05:25.717Z,6.30
2023-01-25T23:08:12.040Z,6.20
2023-01-25T23:11:03.070Z,6.30
2023-01-25T23:14:07.997Z,6.10
2023-01-25T23:17:14.625Z,6.10
2023-01-25T23:20:01.012Z,5.30
2023-01-25T23:22:47.583Z,5.80
2023-01-25T23:25:34.269Z,5.70
2023-01-25T23:28:20.162Z,5.70
2023-01-25T23:31:17.948Z,5.80
2023-01-25T23:34:06.366Z,5.90
2023-01-25T23:36:52.638Z,5.90
2023-01-25T23:39:39.055Z,6.00
2023-01-25T23:42:24.889Z,6.00
2023-01-25T23:45:11.980Z,5.90
2023-01-25T23:47:57.782Z,5.90
2023-01-25T23:50:43.971Z,5.80
2023-01-25T23:53:32.273Z,5.80
2023-01-25T23:56:21.023Z,5.80
2023-01-25T23:59:14.991Z,5.80
